createdAt,value
2023-02-19T00:00:38.808Z,7.80
2023-02-19T00:03:50.756Z,10.70
2023-02-19T00:06:38.707Z,12.70
2023-02-19T00:09:26.670Z,7.20
2023-02-19T00:12:14.591Z,11.90
2023-02-19T00:15:03.070Z,7.90
2023-02-19T00:17:51.044Z,10.10
2023-02-19T00:20:38.820Z,8.80
2023-02-19T00:23:28.140Z,12.40
2023-02-19T00:26:18.508Z,11.00
2023-02-19T00:29:07.933Z,8.30
2023-02-19T00:31:56.311Z,10.20
2023-02-19T00:34:45.309Z,10.80
2023-02-19T00:37:33.245Z,14.90
2023-02-19T00:40:21.387Z,9.60
2023-02-19T00:43:09.066Z,11.60
2023-02-19T00:45:57.209Z,13.70
2023-02-19T00:48:45.657Z,11.60
2023-02-19T00:51:37.646Z,9.20
2023-02-19T00:54:25.330Z,9.20
2023-02-19T00:57:13.022Z,9.00
2023-02-19T01:00:01.191Z,11.50
2023-02-19T01:02:49.171Z,10.70
2023-02-19T01:05:37.672Z,12.20
2023-02-19T01:08:25.619Z,10.20
2023-02-19T01:11:15.144Z,11.80
2023-02-19T01:14:05.066Z,9.20
2023-02-19T01:16:52.857Z,11.90
2023-02-19T01:19:40.573Z,13.10
2023-02-19T01:22:28.601Z,10.00
2023-02-19T01:25:16.741Z,11.00
2023-02-19T01:28:04.775Z,12.30
2023-02-19T01:30:52.806Z,10.70
2023-02-19T01:33:40.616Z,12.20
2023-02-19T01:36:30.127Z,8.00
2023-02-19T01:39:17.926Z,9.20
2023-02-19T01:42:14.335Z,9.10
2023-02-19T01:45:21.260Z,8.20
2023-02-19T01:48:23.963Z,7.40
2023-02-19T01:51:17.114Z,9.40
2023-02-19T01:54:08.870Z,8.40
2023-02-19T01:56:58.070Z,12.00
2023-02-19T01:59:48.357Z,7.60
2023-02-19T02:02:37.367Z,9.30
2023-02-19T02:05:40.408Z,10.60
2023-02-19T02:08:50.011Z,8.80
2023-02-19T02:11:52.290Z,9.20
2023-02-19T02:14:45.941Z,10.50
2023-02-19T02:17:51.727Z,8.80
2023-02-19T02:21:18.907Z,10.20
2023-02-19T02:25:02.824Z,11.20
2023-02-19T02:28:07.114Z,13.20
2023-02-19T02:31:02.898Z,12.10
2023-02-19T02:34:04.117Z,12.30
2023-02-19T02:36:56.914Z,19.60
2023-02-19T02:39:47.851Z,19.10
2023-02-19T02:42:40.133Z,20.50
2023-02-19T02:45:36.388Z,17.20
2023-02-19T02:48:54.163Z,14.40
2023-02-19T02:51:50.880Z,10.20
2023-02-19T02:55:02.599Z,14.40
2023-02-19T02:57:52.342Z,9.50
2023-02-19T03:01:02.935Z,10.60
2023-02-19T03:03:58.229Z,7.30
2023-02-19T03:06:48.792Z,6.70
2023-02-19T03:09:42.151Z,8.70
2023-02-19T03:12:51.070Z,13.50
2023-02-19T03:16:06.807Z,12.00
2023-02-19T03:19:17.480Z,8.00
2023-02-19T03:22:28.431Z,11.30
2023-02-19T03:25:44.891Z,13.80
2023-02-19T03:29:14.276Z,9.10
2023-02-19T03:32:18.579Z,8.80
2023-02-19T03:35:17.124Z,7.70
2023-02-19T03:38:26.664Z,15.90
2023-02-19T03:41:35.411Z,15.50
2023-02-19T03:44:48.358Z,11.20
2023-02-19T03:47:55.302Z,8.30
2023-02-19T03:51:17.021Z,7.30
2023-02-19T03:54:35.430Z,10.00
2023-02-19T03:58:12.034Z,9.30
2023-02-19T04:01:25.321Z,8.20
2023-02-19T04:04:24.854Z,10.10
2023-02-19T04:07:13.446Z,12.10
2023-02-19T04:10:03.627Z,13.40
2023-02-19T04:12:59.863Z,11.70
2023-02-19T04:15:50.617Z,11.30
2023-02-19T04:18:41.692Z,7.70
2023-02-19T04:21:31.710Z,6.70
2023-02-19T04:24:37.589Z,9.00
2023-02-19T04:27:25.653Z,11.30
2023-02-19T04:30:15.112Z,9.90
2023-02-19T04:33:03.274Z,7.00
2023-02-19T04:35:51.027Z,9.80
2023-02-19T04:38:39.097Z,8.80
2023-02-19T04:41:26.812Z,6.70
2023-02-19T04:44:14.537Z,9.50
2023-02-19T04:47:02.516Z,7.30
2023-02-19T04:49:50.357Z,8.30
2023-02-19T04:52:38.077Z,8.40
2023-02-19T04:55:26.041Z,11.90
2023-02-19T04:58:14.789Z,8.10
2023-02-19T05:01:03.358Z,7.90
2023-02-19T05:03:52.226Z,9.10
2023-02-19T05:06:40.274Z,10.00
2023-02-19T05:09:28.409Z,10.60
2023-02-19T05:12:16.098Z,8.90
2023-02-19T05:15:04.361Z,10.80
2023-02-19T05:17:52.048Z,10.30
2023-02-19T05:20:39.816Z,9.90
2023-02-19T05:23:28.927Z,9.40
2023-02-19T05:26:21.069Z,10.60
2023-02-19T05:29:08.690Z,7.20
2023-02-19T05:31:57.014Z,10.90
2023-02-19T05:34:44.995Z,8.70
2023-02-19T05:37:33.271Z,11.00
2023-02-19T05:40:21.111Z,10.40
2023-02-19T05:43:09.560Z,6.60
2023-02-19T05:45:59.426Z,8.50
2023-02-19T05:48:49.041Z,11.80
2023-02-19T05:51:36.922Z,12.30
2023-02-19T05:54:24.848Z,12.30
2023-02-19T05:57:12.432Z,11.40
2023-02-19T06:00:00.216Z,9.10
2023-02-19T06:02:48.669Z,9.50
2023-02-19T06:05:38.002Z,10.30
2023-02-19T06:08:26.018Z,9.40
2023-02-19T06:11:13.815Z,9.30
2023-02-19T06:14:01.835Z,10.30
2023-02-19T06:16:49.762Z,8.80
2023-02-19T06:19:37.842Z,10.50
2023-02-19T06:22:26.277Z,11.30
2023-02-19T06:25:14.109Z,11.30
2023-02-19T06:28:01.700Z,7.00
2023-02-19T06:30:51.469Z,10.40
2023-02-19T06:33:41.383Z,10.90
2023-02-19T06:36:29.314Z,11.20
2023-02-19T06:39:17.380Z,9.10
2023-02-19T06:42:05.411Z,9.30
2023-02-19T06:44:53.064Z,9.30
2023-02-19T06:47:40.729Z,10.70
2023-02-19T06:50:28.978Z,9.20
2023-02-19T06:53:17.022Z,10.60
2023-02-19T06:56:21.009Z,8.90
2023-02-19T06:59:13.595Z,6.70
2023-02-19T07:02:01.454Z,7.30
2023-02-19T07:04:49.395Z,7.90
2023-02-19T07:07:37.260Z,9.40
2023-02-19T07:10:24.978Z,9.30
2023-02-19T07:13:13.076Z,7.10
2023-02-19T07:16:12.377Z,10.10
2023-02-19T07:19:01.478Z,12.20
2023-02-19T07:21:55.635Z,10.60
2023-02-19T07:24:43.453Z,8.80
2023-02-19T07:27:31.829Z,7.80
2023-02-19T07:30:20.170Z,10.30
2023-02-19T07:33:10.434Z,8.00
2023-02-19T07:35:59.989Z,8.90
2023-02-19T07:38:47.906Z,8.60
2023-02-19T07:41:35.883Z,11.30
2023-02-19T07:44:24.123Z,11.50
2023-02-19T07:47:12.043Z,9.30
2023-02-19T07:50:00.586Z,8.50
2023-02-19T07:52:48.282Z,8.50
2023-02-19T07:55:36.326Z,9.20
2023-02-19T07:58:24.306Z,7.30
2023-02-19T08:01:44.347Z,10.20
2023-02-19T08:04:32.523Z,10.80
2023-02-19T08:07:23.725Z,8.10
2023-02-19T08:10:30.317Z,8.90
2023-02-19T08:13:28.066Z,7.20
2023-02-19T08:16:29.768Z,10.00
2023-02-19T08:19:22.232Z,7.60
2023-02-19T08:22:10.549Z,10.60
2023-02-19T08:24:58.431Z,13.40
2023-02-19T08:27:46.229Z,14.80
2023-02-19T08:30:35.093Z,13.00
2023-02-19T08:33:23.046Z,10.40
2023-02-19T08:36:11.568Z,7.40
2023-02-19T08:38:59.843Z,8.00
2023-02-19T08:41:48.027Z,9.00
2023-02-19T08:44:36.014Z,10.70
2023-02-19T08:47:24.075Z,6.70
2023-02-19T08:50:12.633Z,7.00
2023-02-19T08:53:01.244Z,7.60
2023-02-19T08:55:49.082Z,8.60
2023-02-19T08:58:37.608Z,8.30
2023-02-19T09:01:25.751Z,7.80
2023-02-19T09:04:13.549Z,8.20
2023-02-19T09:07:01.261Z,7.30
2023-02-19T09:09:49.587Z,7.20
2023-02-19T09:12:38.363Z,6.70
2023-02-19T09:15:26.607Z,7.00
2023-02-19T09:18:14.512Z,6.80
2023-02-19T09:21:05.540Z,6.30
2023-02-19T09:23:53.231Z,7.40
2023-02-19T09:26:41.118Z,6.80
2023-02-19T09:29:29.962Z,6.10
2023-02-19T09:32:19.213Z,6.80
2023-02-19T09:35:07.776Z,9.00
2023-02-19T09:37:55.705Z,7.20
2023-02-19T09:40:43.913Z,6.00
2023-02-19T09:43:32.142Z,6.60
2023-02-19T09:46:38.748Z,6.20
2023-02-19T09:49:32.162Z,6.00
2023-02-19T09:52:34.446Z,6.10
2023-02-19T09:55:40.855Z,5.90
2023-02-19T09:58:36.032Z,6.00
2023-02-19T10:01:30.925Z,5.10
2023-02-19T10:04:18.972Z,5.60
2023-02-19T10:07:21.965Z,5.40
2023-02-19T10:10:12.942Z,5.20
2023-02-19T10:13:27.915Z,6.80
2023-02-19T10:16:26.743Z,5.80
2023-02-19T10:19:16.237Z,6.60
2023-02-19T10:22:05.003Z,5.60
2023-02-19T10:24:56.579Z,5.30
2023-02-19T10:27:44.805Z,5.70
2023-02-19T10:30:36.004Z,7.10
2023-02-19T10:33:24.961Z,5.50
2023-02-19T10:36:39.737Z,8.20
2023-02-19T10:39:47.790Z,10.70
2023-02-19T10:42:35.521Z,13.20
2023-02-19T10:45:47.829Z,7.70
2023-02-19T10:48:41.005Z,5.80
2023-02-19T10:51:39.070Z,6.60
2023-02-19T10:54:33.052Z,7.10
2023-02-19T10:57:30.179Z,8.70
2023-02-19T11:00:30.385Z,8.10
2023-02-19T11:03:24.008Z,8.00
2023-02-19T11:06:14.393Z,6.90
2023-02-19T11:09:02.251Z,5.20
2023-02-19T11:11:53.535Z,6.60
2023-02-19T11:14:45.658Z,4.40
2023-02-19T11:17:33.513Z,5.10
2023-02-19T11:20:21.531Z,5.00
2023-02-19T11:23:27.588Z,6.20
2023-02-19T11:26:23.135Z,5.70
2023-02-19T11:29:28.656Z,6.10
2023-02-19T11:32:29.892Z,5.90
2023-02-19T11:35:25.279Z,6.30
2023-02-19T11:38:16.862Z,5.60
2023-02-19T11:41:28.929Z,5.60
2023-02-19T11:44:47.283Z,5.50
2023-02-19T11:48:13.849Z,6.10
2023-02-19T11:51:41.078Z,6.30
2023-02-19T11:54:57.911Z,6.00
2023-02-19T11:58:13.940Z,6.60
2023-02-19T12:01:42.953Z,5.70
2023-02-19T12:05:10.064Z,8.30
2023-02-19T12:08:28.305Z,6.40
2023-02-19T12:11:40.747Z,5.80
2023-02-19T12:14:56.255Z,6.80
2023-02-19T12:18:18.063Z,5.60
2023-02-19T12:21:32.258Z,7.80
2023-02-19T12:25:07.480Z,5.90
2023-02-19T12:28:28.625Z,6.80
2023-02-19T12:31:33.122Z,7.40
2023-02-19T12:34:24.895Z,8.70
2023-02-19T12:37:26.056Z,7.10
2023-02-19T12:40:33.721Z,6.20
2023-02-19T12:43:23.761Z,7.10
2023-02-19T12:46:21.635Z,6.10
2023-02-19T12:49:37.430Z,5.30
2023-02-19T12:52:31.996Z,4.50
2023-02-19T12:55:46.777Z,5.70
2023-02-19T12:59:03.932Z,6.50
2023-02-19T13:02:41.721Z,5.30
2023-02-19T13:05:38.949Z,6.30
2023-02-19T13:08:34.827Z,5.20
2023-02-19T13:11:31.814Z,5.30
2023-02-19T13:14:32.435Z,5.60
2023-02-19T13:17:55.580Z,4.60
2023-02-19T13:20:46.759Z,4.40
2023-02-19T13:24:03.275Z,5.80
2023-02-19T13:27:50.835Z,6.90
2023-02-19T13:31:15.548Z,6.30
2023-02-19T13:34:12.348Z,6.10
2023-02-19T13:37:01.566Z,6.50
2023-02-19T13:39:55.503Z,5.50
2023-02-19T13:42:54.169Z,6.30
2023-02-19T13:45:46.059Z,6.60
2023-02-19T13:48:37.924Z,6.00
2023-02-19T13:51:29.238Z,4.30
2023-02-19T13:54:33.369Z,5.30
2023-02-19T13:57:24.136Z,5.20
2023-02-19T14:00:50.847Z,5.30
2023-02-19T14:04:07.017Z,4.70
2023-02-19T14:07:04.652Z,5.60
2023-02-19T14:09:53.156Z,5.50
2023-02-19T14:12:41.163Z,4.80
2023-02-19T14:15:44.523Z,5.60
2023-02-19T14:18:48.868Z,4.70
2023-02-19T14:21:39.929Z,4.30
2023-02-19T14:24:28.844Z,4.80
2023-02-19T14:27:17.084Z,6.30
2023-02-19T14:30:06.326Z,5.10
2023-02-19T14:33:07.761Z,5.50
2023-02-19T14:36:45.231Z,5.50
2023-02-19T14:39:38.869Z,5.30
2023-02-19T14:42:33.506Z,8.50
2023-02-19T14:45:22.466Z,6.30
2023-02-19T14:48:38.946Z,7.00
2023-02-19T14:51:37.875Z,6.90
2023-02-19T14:54:53.450Z,5.50
2023-02-19T14:57:46.118Z,5.80
2023-02-19T15:00:37.939Z,7.60
2023-02-19T15:03:38.047Z,5.80
2023-02-19T15:06:27.358Z,6.20
2023-02-19T15:09:16.872Z,7.40
2023-02-19T15:12:06.047Z,6.60
2023-02-19T15:15:00.213Z,8.90
2023-02-19T15:17:50.057Z,7.30
2023-02-19T15:20:38.263Z,8.10
2023-02-19T15:23:27.585Z,6.80
2023-02-19T15:26:39.213Z,7.20
2023-02-19T15:29:28.676Z,6.70
2023-02-19T15:32:22.739Z,7.50
2023-02-19T15:35:21.443Z,6.20
2023-02-19T15:38:12.707Z,6.40
2023-02-19T15:41:01.106Z,9.40
2023-02-19T15:44:13.469Z,7.30
2023-02-19T15:47:13.464Z,7.70
2023-02-19T15:50:12.854Z,6.60
2023-02-19T15:53:35.262Z,6.90
2023-02-19T15:56:29.529Z,6.40
2023-02-19T15:59:36.665Z,6.20
2023-02-19T16:02:27.679Z,7.60
2023-02-19T16:05:25.338Z,6.90
2023-02-19T16:08:13.238Z,5.70
2023-02-19T16:11:19.261Z,5.10
2023-02-19T16:14:30.482Z,7.60
2023-02-19T16:17:23.323Z,7.30
2023-02-19T16:20:31.100Z,7.50
2023-02-19T16:23:24.410Z,9.20
2023-02-19T16:26:12.835Z,7.80
2023-02-19T16:29:00.795Z,7.60
2023-02-19T16:32:08.006Z,7.20
2023-02-19T16:34:56.010Z,8.60
2023-02-19T16:38:03.708Z,8.60
2023-02-19T16:40:52.420Z,6.90
2023-02-19T16:43:43.879Z,11.10
2023-02-19T16:46:32.912Z,8.70
2023-02-19T16:49:23.955Z,9.30
2023-02-19T16:52:15.756Z,7.70
2023-02-19T16:55:11.959Z,8.80
2023-02-19T16:58:00.546Z,8.50
2023-02-19T17:00:48.582Z,10.20
2023-02-19T17:03:39.337Z,11.90
2023-02-19T17:06:27.728Z,11.10
2023-02-19T17:09:15.797Z,11.80
2023-02-19T17:12:04.111Z,12.60
2023-02-19T17:14:52.544Z,13.10
2023-02-19T17:17:41.565Z,13.60
2023-02-19T17:20:35.300Z,11.30
2023-02-19T17:23:24.483Z,12.30
2023-02-19T17:26:30.659Z,11.10
2023-02-19T17:29:20.073Z,14.00
2023-02-19T17:32:08.531Z,23.60
2023-02-19T17:34:56.597Z,23.90
2023-02-19T17:37:44.786Z,22.30
2023-02-19T17:40:33.860Z,20.00
2023-02-19T17:43:23.293Z,16.10
2023-02-19T17:46:22.742Z,17.90
2023-02-19T17:49:13.294Z,24.80
2023-02-19T17:52:01.617Z,22.80
2023-02-19T17:54:49.964Z,15.20
2023-02-19T17:57:38.771Z,17.90
2023-02-19T18:00:30.213Z,20.60
2023-02-19T18:03:18.419Z,26.00
2023-02-19T18:06:07.105Z,21.40
2023-02-19T18:08:55.303Z,21.50
2023-02-19T18:11:46.530Z,17.90
2023-02-19T18:14:34.677Z,15.00
2023-02-19T18:17:24.960Z,14.80
2023-02-19T18:20:23.184Z,12.20
2023-02-19T18:23:11.222Z,14.10
2023-02-19T18:25:59.208Z,10.60
2023-02-19T18:28:47.216Z,11.70
2023-02-19T18:31:37.560Z,11.10
2023-02-19T18:34:25.900Z,9.70
2023-02-19T18:37:13.990Z,10.50
2023-02-19T18:40:04.063Z,8.90
2023-02-19T18:42:52.129Z,12.70
2023-02-19T18:45:40.352Z,13.30
2023-02-19T18:48:28.614Z,12.70
2023-02-19T18:51:16.820Z,15.60
2023-02-19T18:54:05.302Z,11.50
2023-02-19T18:56:53.331Z,14.10
2023-02-19T18:59:42.713Z,11.20
2023-02-19T19:02:42.658Z,11.20
2023-02-19T19:05:37.211Z,11.90
2023-02-19T19:08:26.167Z,12.20
2023-02-19T19:11:14.270Z,13.50
2023-02-19T19:14:03.358Z,10.20
2023-02-19T19:16:51.877Z,10.60
2023-02-19T19:19:41.275Z,8.40
2023-02-19T19:22:29.195Z,10.90
2023-02-19T19:25:17.063Z,8.80
2023-02-19T19:28:05.144Z,8.40
2023-02-19T19:30:53.122Z,11.10
2023-02-19T19:33:42.514Z,10.30
2023-02-19T19:36:30.663Z,9.60
2023-02-19T19:39:18.635Z,11.00
2023-02-19T19:42:09.364Z,7.90
2023-02-19T19:44:57.306Z,7.90
2023-02-19T19:47:45.423Z,7.90
2023-02-19T19:50:33.417Z,10.80
2023-02-19T19:53:21.722Z,8.80
2023-02-19T19:56:09.602Z,7.00
2023-02-19T19:58:57.441Z,9.80
2023-02-19T20:02:01.849Z,9.70
2023-02-19T20:04:50.273Z,8.30
2023-02-19T20:07:38.156Z,9.60
2023-02-19T20:10:26.477Z,6.90
2023-02-19T20:13:19.252Z,8.90
2023-02-19T20:16:10.946Z,9.40
2023-02-19T20:18:58.917Z,8.30
2023-02-19T20:21:52.981Z,8.20
2023-02-19T20:24:40.760Z,9.00
2023-02-19T20:27:28.676Z,9.60
2023-02-19T20:30:20.330Z,9.60
2023-02-19T20:33:08.377Z,5.70
2023-02-19T20:35:57.104Z,7.30
2023-02-19T20:38:44.797Z,8.00
2023-02-19T20:41:32.482Z,7.20
2023-02-19T20:44:20.726Z,9.20
2023-02-19T20:47:10.105Z,8.60
2023-02-19T20:49:58.048Z,8.40
2023-02-19T20:52:49.637Z,9.00
2023-02-19T20:55:37.955Z,9.40
2023-02-19T20:58:26.141Z,8.80
2023-02-19T21:01:14.220Z,6.30
2023-02-19T21:04:02.326Z,6.90
2023-02-19T21:06:53.340Z,8.00
2023-02-19T21:09:41.647Z,10.20
2023-02-19T21:12:29.527Z,6.40
2023-02-19T21:15:18.530Z,6.30
2023-02-19T21:18:06.649Z,7.40
2023-02-19T21:20:54.720Z,7.80
2023-02-19T21:23:42.579Z,5.40
2023-02-19T21:26:39.467Z,7.20
2023-02-19T21:29:27.675Z,7.90
2023-02-19T21:32:15.831Z,7.20
2023-02-19T21:35:06.071Z,6.70
2023-02-19T21:37:57.028Z,9.40
2023-02-19T21:40:44.902Z,7.00
2023-02-19T21:43:32.889Z,6.80
2023-02-19T21:46:21.428Z,10.80
2023-02-19T21:49:10.764Z,7.20
2023-02-19T21:51:58.322Z,8.20
2023-02-19T21:54:46.220Z,6.80
2023-02-19T21:57:34.324Z,9.90
2023-02-19T22:00:22.557Z,8.00
2023-02-19T22:03:16.521Z,6.40
2023-02-19T22:06:04.941Z,8.80
2023-02-19T22:08:53.029Z,9.70
2023-02-19T22:11:40.980Z,7.30
2023-02-19T22:14:28.925Z,4.90
2023-02-19T22:17:16.902Z,8.00
2023-02-19T22:20:05.810Z,6.10
2023-02-19T22:22:53.638Z,6.30
2023-02-19T22:25:41.807Z,10.40
2023-02-19T22:28:29.439Z,9.60
2023-02-19T22:31:21.390Z,9.60
2023-02-19T22:34:10.033Z,9.50
2023-02-19T22:36:58.048Z,6.70
2023-02-19T22:39:45.879Z,8.50
2023-02-19T22:42:35.961Z,12.00
2023-02-19T22:45:25.290Z,8.00
2023-02-19T22:48:16.841Z,9.00
2023-02-19T22:51:16.233Z,6.90
2023-02-19T22:54:04.203Z,6.90
2023-02-19T22:56:53.226Z,7.30
2023-02-19T22:59:41.187Z,5.90
2023-02-19T23:02:29.189Z,7.20
2023-02-19T23:05:17.535Z,8.40
2023-02-19T23:08:05.626Z,8.60
2023-02-19T23:10:53.609Z,7.70
2023-02-19T23:13:42.619Z,8.30
2023-02-19T23:16:32.971Z,6.70
2023-02-19T23:19:21.122Z,7.40
2023-02-19T23:22:09.734Z,7.50
2023-02-19T23:24:57.599Z,7.20
2023-02-19T23:27:45.500Z,10.10
2023-02-19T23:30:33.975Z,6.10
2023-02-19T23:33:21.837Z,8.40
2023-02-19T23:36:11.443Z,9.10
2023-02-19T23:38:59.739Z,7.30
2023-02-19T23:41:54.037Z,8.60
2023-02-19T23:44:43.060Z,8.40
2023-02-19T23:47:30.864Z,10.70
2023-02-19T23:50:19.003Z,8.20
2023-02-19T23:53:06.864Z,9.50
2023-02-19T23:55:55.457Z,6.80
2023-02-19T23:58:44.553Z,8.40
